Terminal Aerodrome Forecast
Issued by NWS

Home | Current Version | Previous Version | Graphics & Text | Print | Product List | Glossary On
Versions: 1 2 3 4 5 6 7 8 9 10 11 12 13 14 15 16 17 18 19 20 21 22 23 24 25 26 27 28 29 30 31 32 33 34
936
FTUS43 KBIS 251401 AAB
TAFDIK
TAF AMD
KDIK 251401Z 2514/2612 28006KT 6SM -SHSN SCT025 BKN040
      TEMPO 2514/2516 1SM -SN BKN025
     FM251800 31008KT P6SM OVC020
     FM252100 27013G21KT P6SM BKN050
     FM260500 29008KT P6SM BKN035
     FM260900 32006KT P6SM BKN020=

USA.gov is the U.S. government's official web portal to all federal, state and local government web resources and services.